Time;durP1;ratioP1;P1;durP2;ratioP2;P2;SDS_P1;SDS_P2;PMS_P1;PMS_P2;Temp;Humidity;BMP_temperature;BMP_pressure;BME280_temperature;BME280_humidity;BME280_pressure;Samples;Min_cycle;Max_cycle;Signal;HPM_P1;HPM_P2
2022/05/20 00:05:02;;;;;;;8.37;5.63;;;12.90;99.90;;;;;;5073835;28;20528;-92
2022/05/20 00:07:28;;;;;;;8.57;5.23;;;12.80;99.90;;;;;;5056539;28;20244;-93
2022/05/20 00:09:54;;;;;;;8.00;5.60;;;12.80;99.90;;;;;;5041131;28;20298;-93
2022/05/20 00:12:20;;;;;;;6.27;4.50;;;12.70;99.90;;;;;;5041185;28;20284;-93
2022/05/20 00:14:46;;;;;;;8.23;4.60;;;12.70;99.90;;;;;;5056491;28;20207;-92
2022/05/20 00:17:14;;;;;;;7.73;5.17;;;12.70;99.90;;;;;;5077826;28;20228;-92
2022/05/20 00:19:44;;;;;;;5.37;4.63;;;12.70;99.90;;;;;;5074664;28;20296;-92
2022/05/20 00:22:17;;;;;;;10.20;5.37;;;12.80;99.90;;;;;;5070385;28;20231;-92
2022/05/20 00:27:32;;;;;;;8.83;6.00;;;12.70;99.90;;;;;;5074965;28;20181;-91
2022/05/20 00:29:58;;;;;;;10.77;5.07;;;12.80;99.90;;;;;;5080508;28;20211;-91
2022/05/20 00:32:27;;;;;;;10.33;4.97;;;12.80;99.90;;;;;;5084108;28;20208;-92
2022/05/20 00:34:55;;;;;;;11.53;5.53;;;12.80;99.90;;;;;;5086257;28;20223;-93
2022/05/20 00:37:24;;;;;;;10.10;6.17;;;12.80;99.90;;;;;;5079369;28;20213;-92
2022/05/20 00:39:55;;;;;;;7.63;4.47;;;12.80;99.90;;;;;;5054045;28;20219;-94
2022/05/20 00:42:21;;;;;;;8.77;5.17;;;12.80;99.90;;;;;;5073574;28;20217;-92
2022/05/20 00:45:18;;;;;;;8.83;5.43;;;12.80;99.90;;;;;;5082000;28;20229;-92
2022/05/20 01:02:14;;;;;;;6.10;4.47;;;12.70;99.90;;;;;;5032566;28;20240;-93
2022/05/20 01:04:42;;;;;;;9.17;6.00;;;12.70;99.90;;;;;;5016560;28;20373;-93
2022/05/20 01:07:10;;;;;;;7.87;5.70;;;12.70;99.90;;;;;;5032927;28;20233;-92
2022/05/20 01:09:39;;;;;;;8.10;5.43;;;12.70;99.90;;;;;;5019111;28;20233;-94
2022/05/20 01:12:06;;;;;;;4.33;3.67;;;12.70;99.90;;;;;;5024901;28;20253;-93
2022/05/20 01:14:35;;;;;;;5.33;3.97;;;12.70;99.90;;;;;;5036627;28;20248;-93
2022/05/20 01:17:06;;;;;;;7.10;4.57;;;12.70;99.90;;;;;;5036508;28;20213;-93
2022/05/20 01:19:40;;;;;;;5.67;4.87;;;12.70;99.90;;;;;;5049112;28;20709;-91
2022/05/20 01:22:36;;;;;;;7.67;4.80;;;12.70;99.90;;;;;;5044738;28;20214;-93
2022/05/20 01:25:03;;;;;;;5.40;4.03;;;12.70;99.90;;;;;;5038270;28;20243;-91
2022/05/20 01:27:28;;;;;;;6.23;3.63;;;12.80;99.90;;;;;;5063836;28;20267;-93
2022/05/20 01:29:54;;;;;;;8.10;5.50;;;12.80;99.90;;;;;;5070306;28;20615;-91
2022/05/20 01:32:20;;;;;;;14.37;5.67;;;12.80;99.90;;;;;;5076878;28;20230;-94
2022/05/20 01:34:46;;;;;;;7.50;4.60;;;12.80;99.90;;;;;;5076596;28;20628;-93
2022/05/20 01:37:36;;;;;;;6.27;4.50;;;12.90;99.90;;;;;;5056653;28;20291;-93
2022/05/20 01:40:03;;;;;;;5.40;4.40;;;12.90;99.90;;;;;;5067245;28;20229;-94
2022/05/20 01:42:35;;;;;;;5.70;4.47;;;12.90;99.90;;;;;;5059341;28;20197;-93
2022/05/20 02:00:11;;;;;;;9.73;4.97;;;12.90;99.90;;;;;;5083207;28;20224;-93
2022/05/20 02:02:46;;;;;;;5.77;4.27;;;12.90;99.90;;;;;;5091982;28;20196;-92
2022/05/20 02:05:19;;;;;;;6.40;5.33;;;12.80;99.90;;;;;;5060271;28;20262;-93
2022/05/20 02:07:49;;;;;;;7.13;5.23;;;12.80;99.90;;;;;;5078044;28;20169;-93
2022/05/20 02:25:46;;;;;;;5.17;3.77;;;12.70;99.90;;;;;;5068871;28;20209;-94
2022/05/20 02:32:31;;;;;;;9.00;4.17;;;12.70;99.90;;;;;;5082984;28;20699;-93
2022/05/20 02:35:36;;;;;;;9.53;5.47;;;12.60;99.90;;;;;;5097812;28;20175;-93
2022/05/20 02:49:54;;;;;;;7.87;5.37;;;12.60;99.90;;;;;;5095603;28;20270;-93
2022/05/20 03:04:44;;;;;;;7.67;4.43;;;12.30;99.90;;;;;;5045447;28;20341;-94
2022/05/20 03:07:10;;;;;;;10.73;5.57;;;12.20;99.90;;;;;;5036981;28;20325;-93
2022/05/20 03:09:36;;;;;;;7.17;5.60;;;12.20;99.90;;;;;;5039856;28;20561;-93
2022/05/20 03:19:39;;;;;;;15.70;5.27;;;12.10;99.90;;;;;;5039693;28;20205;-94
2022/05/20 03:22:06;;;;;;;10.50;5.83;;;12.00;99.90;;;;;;5024640;28;20753;-93
2022/05/20 03:24:32;;;;;;;9.70;6.33;;;12.00;99.90;;;;;;5023380;28;20230;-93
2022/05/20 03:34:58;;;;;;;8.00;5.00;;;12.00;99.90;;;;;;5054395;28;20236;-94
2022/05/20 03:41:11;;;;;;;8.70;5.57;;;12.00;99.90;;;;;;5066613;28;20191;-94
2022/05/20 03:43:37;;;;;;;10.20;6.20;;;12.00;99.90;;;;;;5039774;28;20236;-93
2022/05/20 03:46:04;;;;;;;8.03;6.60;;;12.00;99.90;;;;;;5058435;28;20177;-93
2022/05/20 03:48:30;;;;;;;8.33;6.40;;;12.00;99.90;;;;;;5040766;28;20632;-94
2022/05/20 03:50:56;;;;;;;8.57;7.17;;;12.10;99.90;;;;;;5058118;28;20205;-94
2022/05/20 03:57:28;;;;;;;10.80;7.70;;;12.20;99.90;;;;;;5054686;28;20565;-95
2022/05/20 03:59:54;;;;;;;10.40;6.87;;;12.30;99.90;;;;;;5054171;28;20181;-96
2022/05/20 04:02:20;;;;;;;14.23;7.77;;;12.40;99.90;;;;;;5005350;28;20174;-95
2022/05/20 04:05:17;;;;;;;11.67;7.20;;;12.50;99.90;;;;;;5012111;28;20227;-95
2022/05/20 04:07:42;;;;;;;12.37;6.53;;;12.50;99.90;;;;;;5037664;28;20221;-95
2022/05/20 04:10:09;;;;;;;9.27;7.10;;;12.40;99.90;;;;;;5021801;28;20320;-95
2022/05/20 04:12:54;;;;;;;9.23;5.40;;;12.40;99.90;;;;;;5024757;28;20218;-94
2022/05/20 04:23:17;;;;;;;9.63;6.07;;;12.30;99.90;;;;;;5062711;28;20232;-94
2022/05/20 04:32:52;;;;;;;25.57;8.27;;;12.70;99.90;;;;;;5060918;28;20592;-94
2022/05/20 04:35:37;;;;;;;14.30;9.07;;;12.60;99.90;;;;;;5024950;28;20217;-92
2022/05/20 04:38:11;;;;;;;8.60;7.37;;;12.60;99.90;;;;;;5027939;28;20253;-95
2022/05/20 04:47:27;;;;;;;8.83;7.40;;;12.50;99.90;;;;;;5047489;28;20274;-94
2022/05/20 04:49:54;;;;;;;10.30;6.27;;;12.50;99.90;;;;;;5057061;28;20201;-95
2022/05/20 04:52:20;;;;;;;11.60;8.13;;;12.60;99.90;;;;;;5037351;28;20201;-96
2022/05/20 04:54:49;;;;;;;11.97;7.03;;;12.70;99.90;;;;;;5036469;28;20233;-95
2022/05/20 05:01:34;;;;;;;10.00;7.13;;;12.90;99.90;;;;;;5041963;28;20293;-95
2022/05/20 05:07:50;;;;;;;20.17;6.03;;;13.10;99.90;;;;;;5053168;28;20244;-96
2022/05/20 05:10:22;;;;;;;9.33;6.77;;;13.30;99.90;;;;;;5053914;28;20207;-94
2022/05/20 05:12:49;;;;;;;12.33;7.00;;;13.20;99.90;;;;;;5042033;28;20295;-94
2022/05/20 05:15:16;;;;;;;12.43;8.57;;;13.30;99.90;;;;;;5046388;28;20225;-95
2022/05/20 05:20:32;;;;;;;18.30;10.37;;;17.30;99.90;;;;;;5066050;28;20260;-94
2022/05/20 05:22:58;;;;;;;26.13;13.13;;;19.10;99.90;;;;;;5044114;28;20213;-94
2022/05/20 05:25:32;;;;;;;18.57;10.27;;;20.80;99.90;;;;;;5043978;28;20228;-91
2022/05/20 05:28:16;;;;;;;9.87;7.40;;;23.40;99.90;;;;;;5054988;28;20236;-91
2022/05/20 05:30:46;;;;;;;7.30;5.30;;;24.30;99.90;;;;;;5045061;28;20363;-93
2022/05/20 05:33:12;;;;;;;6.23;4.20;;;24.80;99.90;;;;;;5045906;28;20226;-94
2022/05/20 05:35:39;;;;;;;4.33;3.80;;;25.80;99.90;;;;;;5037874;28;20181;-89
2022/05/20 05:38:05;;;;;;;5.13;3.83;;;27.60;99.90;;;;;;5043081;28;20228;-91
2022/05/20 05:40:32;;;;;;;6.60;3.80;;;27.30;99.90;;;;;;5038268;28;20283;-92
2022/05/20 05:42:59;;;;;;;5.50;4.13;;;27.30;99.90;;;;;;5038685;28;20212;-91
2022/05/20 05:45:27;;;;;;;6.27;3.30;;;26.90;99.90;;;;;;5037586;28;20255;-91
2022/05/20 05:48:02;;;;;;;7.40;3.40;;;25.70;99.90;;;;;;5030168;28;20193;-89
2022/05/20 05:50:29;;;;;;;5.43;3.00;;;26.00;99.90;;;;;;5053681;28;20197;-90
2022/05/20 05:53:16;;;;;;;6.80;2.88;;;25.70;99.90;;;;;;5055224;28;20220;-90
2022/05/20 05:55:45;;;;;;;8.43;4.88;;;26.00;99.90;;;;;;5031288;28;20221;-91
2022/05/20 05:58:12;;;;;;;5.00;3.08;;;24.60;99.90;;;;;;5056945;28;20290;-89
2022/05/20 06:00:38;;;;;;;6.82;2.78;;;24.60;99.90;;;;;;5028417;28;20312;-89
2022/05/20 06:03:05;;;;;;;7.60;3.05;;;25.00;99.90;;;;;;5029610;28;20217;-90
2022/05/20 06:05:31;;;;;;;3.75;2.55;;;26.00;99.90;;;;;;5039637;28;20911;-89
2022/05/20 06:07:59;;;;;;;4.13;3.28;;;27.20;99.90;;;;;;5074439;28;20240;-90
2022/05/20 06:10:26;;;;;;;3.17;2.88;;;25.90;99.90;;;;;;5076625;28;20608;-89
2022/05/20 06:12:51;;;;;;;4.68;3.13;;;25.90;99.90;;;;;;5075722;28;20682;-90
2022/05/20 06:15:22;;;;;;;3.35;2.72;;;26.20;99.90;;;;;;5073387;28;20249;-89
2022/05/20 06:17:49;;;;;;;4.25;2.90;;;27.30;99.90;;;;;;5075559;28;20181;-88
2022/05/20 06:20:15;;;;;;;6.72;3.35;;;27.00;99.90;;;;;;5077669;28;20249;-87
2022/05/20 06:22:41;;;;;;;3.38;2.33;;;24.70;99.90;;;;;;5079919;28;20700;-90
2022/05/20 06:25:08;;;;;;;3.60;2.55;;;22.80;99.90;;;;;;5088666;28;20232;-89
2022/05/20 06:27:35;;;;;;;2.03;1.67;;;21.40;99.90;;;;;;5081280;28;20303;-90
2022/05/20 06:30:02;;;;;;;2.70;2.00;;;19.80;99.90;;;;;;5066584;28;20231;-91
2022/05/20 06:32:28;;;;;;;3.63;2.60;;;19.10;99.90;;;;;;5084578;28;20186;-90
2022/05/20 06:40:23;;;;;;;4.90;2.03;;;17.90;99.90;;;;;;5080714;28;20373;-92
2022/05/20 06:42:49;;;;;;;3.00;2.17;;;18.60;99.90;;;;;;5083093;28;20771;-91
2022/05/20 06:45:16;;;;;;;3.87;2.60;;;19.90;99.90;;;;;;5062602;28;20846;-91
2022/05/20 06:47:42;;;;;;;5.13;2.40;;;20.10;99.90;;;;;;5080624;28;20218;-93
2022/05/20 06:50:11;;;;;;;2.23;2.03;;;19.70;99.90;;;;;;5079183;28;20240;-91
2022/05/20 06:52:36;;;;;;;2.70;2.20;;;19.80;99.90;;;;;;5060380;28;20747;-92
2022/05/20 06:55:03;;;;;;;2.80;1.97;;;19.90;99.90;;;;;;5078248;28;20217;-90
2022/05/20 06:57:28;;;;;;;2.23;2.03;;;19.50;99.90;;;;;;5077789;28;20219;-90
2022/05/20 06:59:54;;;;;;;3.30;2.70;;;19.40;99.90;;;;;;5078904;28;20727;-91
2022/05/20 07:02:20;;;;;;;3.37;2.37;;;19.90;99.90;;;;;;5070116;28;20307;-90
2022/05/20 07:04:46;;;;;;;2.83;1.90;;;20.20;99.90;;;;;;5079333;28;20221;-91
2022/05/20 07:07:12;;;;;;;4.80;2.33;;;21.30;99.90;;;;;;5062109;28;20407;-90
2022/05/20 07:09:38;;;;;;;4.80;2.70;;;21.20;99.90;;;;;;5060365;28;20233;-89
2022/05/20 07:12:04;;;;;;;4.95;2.10;;;23.10;99.90;;;;;;5086983;28;20942;-89
2022/05/20 07:14:30;;;;;;;4.40;2.80;;;24.70;99.90;;;;;;5077952;28;20220;-89
2022/05/20 07:16:56;;;;;;;2.90;2.60;;;24.10;99.90;;;;;;5077405;28;20218;-92
2022/05/20 07:19:22;;;;;;;3.47;2.45;;;25.30;99.90;;;;;;5059307;28;20229;-89
2022/05/20 07:21:48;;;;;;;5.07;2.72;;;23.70;99.90;;;;;;5078952;28;20213;-90
2022/05/20 07:24:14;;;;;;;3.92;2.75;;;21.60;99.90;;;;;;5059954;28;20209;-90
2022/05/20 07:26:40;;;;;;;4.63;2.70;;;20.60;99.90;;;;;;5076053;28;20315;-89
2022/05/20 07:29:06;;;;;;;3.63;2.80;;;20.40;99.90;;;;;;5061915;28;20307;-90
2022/05/20 07:31:32;;;;;;;3.17;2.55;;;21.60;99.90;;;;;;5061254;28;20278;-89
2022/05/20 07:33:58;;;;;;;3.10;2.80;;;22.90;99.90;;;;;;5059981;28;20217;-89
2022/05/20 07:36:24;;;;;;;7.95;3.30;;;21.20;99.90;;;;;;5076260;28;20235;-89
2022/05/20 07:38:51;;;;;;;5.07;2.67;;;21.20;99.90;;;;;;5077501;28;20191;-88
2022/05/20 07:41:19;;;;;;;3.88;2.63;;;21.30;99.90;;;;;;5075890;28;20691;-87
2022/05/20 07:43:45;;;;;;;3.70;2.00;;;23.00;99.90;;;;;;5059727;28;20213;-90
2022/05/20 07:46:11;;;;;;;2.85;2.42;;;21.20;99.90;;;;;;5075911;28;20883;-88
2022/05/20 07:48:37;;;;;;;7.78;3.00;;;19.50;99.90;;;;;;5062266;28;20542;-90
2022/05/20 07:51:07;;;;;;;2.85;2.42;;;19.40;99.90;;;;;;5077392;28;20588;-89
2022/05/20 07:53:39;;;;;;;8.00;2.58;;;18.90;99.90;;;;;;5086315;28;20272;-88
2022/05/20 07:56:39;;;;;;;9.10;2.63;;;18.60;99.90;;;;;;5086285;28;20653;-90
2022/05/20 07:59:09;;;;;;;3.47;2.17;;;18.50;99.90;;;;;;5049101;28;20216;-86
2022/05/20 08:01:39;;;;;;;5.93;2.60;;;18.50;99.90;;;;;;5081133;28;20209;-88
2022/05/20 08:07:04;;;;;;;2.43;2.23;;;19.20;99.90;;;;;;5074007;28;20809;-88
2022/05/20 08:09:30;;;;;;;5.10;3.17;;;19.10;99.90;;;;;;5056136;28;20221;-89
2022/05/20 08:11:58;;;;;;;3.23;2.70;;;18.50;99.90;;;;;;5076848;28;20308;-86
2022/05/20 08:14:26;;;;;;;3.67;2.50;;;18.60;99.90;;;;;;5059043;28;20196;-89
2022/05/20 08:16:51;;;;;;;7.13;3.03;;;18.60;99.90;;;;;;5042786;28;20247;-87
2022/05/20 08:19:17;;;;;;;5.87;3.10;;;18.40;99.90;;;;;;5059020;28;20716;-87
2022/05/20 08:21:43;;;;;;;5.83;2.97;;;18.40;99.90;;;;;;5045742;28;20213;-86
2022/05/20 08:24:09;;;;;;;5.77;3.13;;;18.50;99.90;;;;;;5049073;28;20241;-90
2022/05/20 08:26:34;;;;;;;9.67;2.80;;;18.70;99.90;;;;;;5059161;28;20199;-87
2022/05/20 08:29:00;;;;;;;6.13;2.33;;;19.20;99.90;;;;;;5047717;28;20839;-89
2022/05/20 08:31:26;;;;;;;3.23;2.60;;;19.50;99.90;;;;;;5048276;28;20217;-87
2022/05/20 08:33:52;;;;;;;3.27;2.53;;;19.60;99.90;;;;;;5048659;28;20432;-87
2022/05/20 08:36:19;;;;;;;4.53;3.00;;;19.60;99.90;;;;;;5076232;28;21129;-88
2022/05/20 08:38:47;;;;;;;5.03;3.10;;;19.50;99.90;;;;;;5076633;28;21025;-87
2022/05/20 08:41:23;;;;;;;5.40;3.00;;;18.90;99.90;;;;;;5079158;28;20200;-89
2022/05/20 08:43:49;;;;;;;5.33;3.40;;;18.40;99.90;;;;;;5075192;28;20212;-88
2022/05/20 08:46:17;;;;;;;3.03;2.73;;;18.40;99.90;;;;;;5043832;28;20223;-86
2022/05/20 08:48:44;;;;;;;4.90;3.07;;;18.90;99.90;;;;;;5076364;28;20660;-89
2022/05/20 08:51:10;;;;;;;6.07;2.30;;;19.10;99.90;;;;;;5058434;28;20638;-90
2022/05/20 08:53:40;;;;;;;3.83;3.07;;;19.60;99.90;;;;;;5077579;28;20645;-88
2022/05/20 08:56:10;;;;;;;3.23;2.90;;;19.90;99.90;;;;;;5059031;28;20208;-86
2022/05/20 08:58:39;;;;;;;7.93;3.27;;;19.60;99.90;;;;;;5059193;28;20250;-86
2022/05/20 09:01:08;;;;;;;4.23;3.00;;;19.20;99.90;;;;;;5054169;28;20260;-90
2022/05/20 09:03:34;;;;;;;3.77;2.73;;;19.00;99.90;;;;;;5039649;28;20236;-86
2022/05/20 09:06:15;;;;;;;4.90;2.80;;;19.40;99.90;;;;;;5075628;28;20193;-88
2022/05/20 09:08:41;;;;;;;2.70;2.33;;;19.10;99.90;;;;;;5065565;28;20588;-86
2022/05/20 09:11:14;;;;;;;4.97;3.17;;;19.50;99.90;;;;;;5058996;28;20213;-88
2022/05/20 09:16:28;;;;;;;5.57;3.07;;;19.10;99.90;;;;;;5061139;28;20216;-88
2022/05/20 09:19:14;;;;;;;3.70;2.80;;;19.00;99.90;;;;;;5075374;28;20177;-87
2022/05/20 09:21:44;;;;;;;2.40;2.03;;;19.30;99.90;;;;;;5055872;28;20212;-85
2022/05/20 09:24:19;;;;;;;3.87;2.90;;;19.10;99.90;;;;;;5057631;28;20306;-85
2022/05/20 09:27:03;;;;;;;5.33;2.70;;;19.10;99.90;;;;;;5055766;28;20224;-85
2022/05/20 09:29:35;;;;;;;8.33;3.43;;;19.00;99.90;;;;;;5059070;28;20301;-87
2022/05/20 09:32:05;;;;;;;5.70;3.10;;;19.00;99.90;;;;;;5056568;28;20778;-87
2022/05/20 09:34:36;;;;;;;6.13;3.10;;;19.00;99.90;;;;;;5074522;28;20313;-89
2022/05/20 09:37:14;;;;;;;3.50;3.17;;;19.00;99.90;;;;;;5063974;28;20560;-88
2022/05/20 09:39:45;;;;;;;5.53;2.83;;;19.00;99.90;;;;;;5074536;28;20323;-91
2022/05/20 09:42:16;;;;;;;4.27;3.27;;;18.70;99.90;;;;;;5057565;28;20711;-86
2022/05/20 09:44:46;;;;;;;6.83;3.47;;;18.60;99.90;;;;;;5074240;28;20212;-87
2022/05/20 09:47:32;;;;;;;4.70;3.33;;;18.30;99.90;;;;;;5056897;28;20217;-86
2022/05/20 09:50:03;;;;;;;4.40;3.37;;;18.00;99.90;;;;;;5076316;28;20224;-87
2022/05/20 09:52:32;;;;;;;4.67;3.07;;;17.90;99.90;;;;;;5052549;28;20192;-90
2022/05/20 09:55:24;;;;;;;7.63;3.87;;;17.80;99.90;;;;;;5073819;28;20491;-86
2022/05/20 09:57:49;;;;;;;3.00;2.70;;;17.50;99.90;;;;;;5048946;28;20902;-87
2022/05/20 10:00:23;;;;;;;3.20;2.63;;;17.60;99.90;;;;;;5061357;28;20224;-89
2022/05/20 10:02:55;;;;;;;5.50;3.40;;;17.60;99.90;;;;;;5062425;28;20239;-89
2022/05/20 10:05:20;;;;;;;5.67;3.00;;;17.60;99.90;;;;;;5060141;28;20283;-89
2022/05/20 10:07:58;;;;;;;3.93;3.27;;;17.70;99.90;;;;;;5077275;28;20236;-92
2022/05/20 10:10:42;;;;;;;3.43;3.03;;;17.80;99.90;;;;;;5073821;28;20231;-88
2022/05/20 10:13:17;;;;;;;3.83;2.97;;;17.80;99.90;;;;;;5076899;28;20228;-87
2022/05/20 10:15:48;;;;;;;7.67;3.00;;;17.70;99.90;;;;;;5079181;28;20212;-87
2022/05/20 10:18:32;;;;;;;3.47;3.00;;;17.60;99.90;;;;;;5061740;28;20212;-87
2022/05/20 10:21:13;;;;;;;4.17;2.80;;;17.60;99.90;;;;;;5079322;28;20255;-91
2022/05/20 10:23:56;;;;;;;3.90;3.30;;;17.60;99.90;;;;;;5061163;28;20216;-89
2022/05/20 10:27:00;;;;;;;6.63;3.80;;;17.70;99.90;;;;;;5060448;28;20221;-90
2022/05/20 10:33:08;;;;;;;4.50;3.33;;;17.80;99.90;;;;;;5078054;28;20508;-89
2022/05/20 10:35:48;;;;;;;4.63;3.60;;;17.60;99.90;;;;;;5061238;28;21048;-92
2022/05/20 10:38:37;;;;;;;4.60;3.70;;;17.60;99.90;;;;;;5078262;28;20221;-90
2022/05/20 10:41:30;;;;;;;7.97;3.97;;;17.70;99.90;;;;;;5061549;28;20224;-89
2022/05/20 10:50:33;;;;;;;8.70;4.03;;;17.90;99.90;;;;;;5078883;28;20270;-87
2022/05/20 10:53:28;;;;;;;5.20;3.07;;;17.80;99.90;;;;;;5079845;28;20275;-90
2022/05/20 10:56:30;;;;;;;5.10;3.57;;;17.70;99.90;;;;;;5078609;28;20216;-88
2022/05/20 10:59:40;;;;;;;5.73;3.47;;;17.60;99.90;;;;;;5078927;28;20216;-89
2022/05/20 11:02:11;;;;;;;5.40;3.40;;;17.60;99.90;;;;;;5060239;28;20224;-86
2022/05/20 11:05:11;;;;;;;4.00;3.10;;;17.70;99.90;;;;;;5080450;28;20285;-88
2022/05/20 11:08:00;;;;;;;3.50;2.63;;;17.70;99.90;;;;;;5077389;28;20232;-86
2022/05/20 11:10:26;;;;;;;5.53;2.77;;;17.60;99.90;;;;;;5068912;28;20288;-90
2022/05/20 11:13:06;;;;;;;4.60;3.27;;;17.50;99.90;;;;;;5062019;28;20192;-90
2022/05/20 11:16:07;;;;;;;5.07;3.90;;;17.50;99.90;;;;;;5079753;28;20328;-92
2022/05/20 11:19:01;;;;;;;7.13;3.83;;;17.50;99.90;;;;;;5077751;28;20378;-92
2022/05/20 11:21:39;;;;;;;4.77;3.30;;;17.60;99.90;;;;;;5069226;28;20242;-93
2022/05/20 11:24:29;;;;;;;3.83;2.70;;;17.80;99.90;;;;;;5059994;28;20221;-90
2022/05/20 11:27:01;;;;;;;2.83;2.50;;;18.00;99.90;;;;;;5061499;28;20228;-90
2022/05/20 11:29:53;;;;;;;4.00;3.23;;;18.20;99.90;;;;;;5062468;28;20252;-91
2022/05/20 11:32:25;;;;;;;4.43;3.13;;;18.00;99.90;;;;;;5008504;28;20245;-91
2022/05/20 11:35:12;;;;;;;6.83;4.00;;;18.10;99.90;;;;;;5061011;28;20232;-93
2022/05/20 11:38:35;;;;;;;6.90;3.70;;;18.10;99.90;;;;;;5053726;28;21086;-94
2022/05/20 11:41:47;;;;;;;5.57;3.30;;;18.10;99.90;;;;;;5003100;28;20224;-94
2022/05/20 11:44:41;;;;;;;6.80;3.33;;;18.10;99.90;;;;;;5010581;28;20216;-95
2022/05/20 11:47:26;;;;;;;5.87;2.80;;;18.10;99.90;;;;;;5065733;28;20533;-95
2022/05/20 11:50:27;;;;;;;6.20;3.73;;;18.00;99.90;;;;;;5070301;28;20377;-93
2022/05/20 11:53:14;;;;;;;5.77;2.63;;;18.00;99.90;;;;;;5072038;28;20249;-94
2022/05/20 11:56:35;;;;;;;3.90;2.87;;;18.00;99.90;;;;;;5063085;28;21068;-95
2022/05/20 11:59:16;;;;;;;3.43;3.10;;;18.10;99.90;;;;;;5064380;28;20218;-93
2022/05/20 12:01:51;;;;;;;4.23;2.70;;;18.30;99.90;;;;;;5062911;28;20303;-93
2022/05/20 12:04:22;;;;;;;4.13;1.97;;;18.10;99.90;;;;;;5077975;28;20188;-92
2022/05/20 12:07:08;;;;;;;2.23;1.90;;;18.00;99.90;;;;;;5061676;28;20231;-92
2022/05/20 12:09:44;;;;;;;4.23;2.60;;;18.00;99.90;;;;;;5077239;28;20335;-94
2022/05/20 12:12:16;;;;;;;4.43;2.50;;;18.00;99.90;;;;;;5077812;28;20221;-91
2022/05/20 12:14:57;;;;;;;3.77;3.03;;;18.00;99.90;;;;;;5062788;28;20273;-94
2022/05/20 12:17:41;;;;;;;4.80;3.17;;;18.10;99.90;;;;;;5078908;28;20273;-92
2022/05/20 12:26:07;;;;;;;3.77;3.47;;;17.60;99.90;;;;;;5063190;28;20344;-93
2022/05/20 12:28:57;;;;;;;4.53;3.00;;;17.60;99.90;;;;;;5056858;28;20193;-92
2022/05/20 12:31:31;;;;;;;4.67;3.53;;;17.60;99.90;;;;;;5073910;28;20217;-92
2022/05/20 12:34:05;;;;;;;7.70;3.17;;;17.60;99.90;;;;;;5068674;28;20737;-90
2022/05/20 12:36:43;;;;;;;5.73;3.47;;;17.50;99.90;;;;;;5061493;28;20221;-91
2022/05/20 12:39:18;;;;;;;4.73;3.37;;;17.50;99.90;;;;;;5060914;28;20252;-93
2022/05/20 12:41:50;;;;;;;5.97;3.20;;;17.40;99.90;;;;;;5060908;28;20781;-92
2022/05/20 12:44:19;;;;;;;3.43;2.97;;;17.30;99.90;;;;;;5066988;28;20221;-91
2022/05/20 12:47:13;;;;;;;4.83;3.50;;;17.30;99.90;;;;;;5049129;28;20827;-92
2022/05/20 12:50:13;;;;;;;4.70;3.97;;;17.40;99.90;;;;;;5059864;28;20229;-91
2022/05/20 12:53:06;;;;;;;3.50;3.17;;;17.60;99.90;;;;;;5065820;28;20248;-92
2022/05/20 12:55:52;;;;;;;5.13;3.50;;;17.60;99.90;;;;;;5048816;28;20172;-93
2022/05/20 12:58:27;;;;;;;4.87;4.00;;;17.70;99.90;;;;;;5081017;28;20696;-92
2022/05/20 13:00:58;;;;;;;5.53;3.63;;;17.80;99.90;;;;;;5072664;28;20192;-92
2022/05/20 13:03:55;;;;;;;4.13;3.47;;;17.80;99.90;;;;;;5061523;28;20252;-93
2022/05/20 13:06:28;;;;;;;4.30;3.70;;;17.70;99.90;;;;;;5033483;28;20304;-94
2022/05/20 13:09:03;;;;;;;6.17;4.30;;;17.60;99.90;;;;;;5076352;28;20225;-91
2022/05/20 13:11:44;;;;;;;5.17;3.77;;;17.40;99.90;;;;;;5070282;28;20263;-94
2022/05/20 13:14:16;;;;;;;6.77;3.60;;;17.30;99.90;;;;;;5072419;28;20661;-90
2022/05/20 13:16:55;;;;;;;3.73;2.90;;;17.10;99.90;;;;;;5083202;28;20236;-93
2022/05/20 13:19:50;;;;;;;3.80;2.70;;;17.10;99.90;;;;;;5077653;28;20184;-88
2022/05/20 13:22:23;;;;;;;4.73;3.03;;;17.10;99.90;;;;;;5074186;28;20184;-90
2022/05/20 13:24:59;;;;;;;4.30;3.47;;;17.00;99.90;;;;;;5073741;28;20637;-90
2022/05/20 13:27:29;;;;;;;3.87;3.30;;;17.00;99.90;;;;;;5085442;28;20229;-92
2022/05/20 13:30:12;;;;;;;6.50;3.20;;;17.20;99.90;;;;;;5081595;28;20258;-92
2022/05/20 13:32:39;;;;;;;5.23;3.90;;;17.60;99.90;;;;;;5080300;28;20213;-91
2022/05/20 13:35:06;;;;;;;5.07;3.33;;;17.70;99.90;;;;;;5080890;28;20355;-91
2022/05/20 13:37:43;;;;;;;8.93;3.80;;;17.90;99.90;;;;;;5069940;28;20209;-90
2022/05/20 13:40:25;;;;;;;8.97;3.57;;;17.90;99.90;;;;;;5080267;28;20188;-89
2022/05/20 13:42:54;;;;;;;6.17;3.13;;;17.80;99.90;;;;;;5061403;28;20201;-89
2022/05/20 13:49:12;;;;;;;3.50;2.87;;;17.70;99.90;;;;;;5060984;28;20208;-90
2022/05/20 13:51:02;;;;;;;5.70;4.13;;;17.90;99.90;;;;;;5080645;28;20228;-92
2022/05/20 13:53:30;;;;;;;5.20;4.00;;;18.00;99.90;;;;;;5062299;28;20212;-91
2022/05/20 13:55:57;;;;;;;8.87;4.97;;;18.00;99.90;;;;;;5050909;28;20217;-93
2022/05/20 13:58:35;;;;;;;6.73;4.37;;;18.00;99.90;;;;;;5062702;28;20192;-93
2022/05/20 14:01:03;;;;;;;6.47;5.00;;;17.80;99.90;;;;;;5049893;28;20212;-94
2022/05/20 14:03:33;;;;;;;5.63;3.87;;;17.70;99.90;;;;;;5063167;28;20220;-95
2022/05/20 14:06:14;;;;;;;6.10;4.20;;;17.60;99.90;;;;;;5086482;28;20219;-95
2022/05/20 14:08:53;;;;;;;7.20;4.57;;;17.60;99.90;;;;;;5067439;28;20303;-95
2022/05/20 14:11:56;;;;;;;9.20;4.37;;;17.50;99.90;;;;;;5067602;28;20224;-95
2022/05/20 14:14:29;;;;;;;5.70;4.00;;;17.20;99.90;;;;;;5064176;28;20213;-94
2022/05/20 14:17:01;;;;;;;6.43;4.73;;;17.30;99.90;;;;;;5083292;28;20224;-94
2022/05/20 14:19:31;;;;;;;8.70;3.93;;;17.30;99.90;;;;;;5062167;28;20633;-94
2022/05/20 14:22:03;;;;;;;13.00;4.37;;;17.30;99.90;;;;;;5066172;28;20323;-95
2022/05/20 14:25:04;;;;;;;6.37;4.53;;;17.20;99.90;;;;;;5062634;28;20212;-94
2022/05/20 14:27:49;;;;;;;8.13;4.07;;;17.30;99.90;;;;;;5064642;28;20283;-95
2022/05/20 14:30:40;;;;;;;8.80;5.13;;;17.40;99.90;;;;;;5068037;28;20221;-95
2022/05/20 14:33:23;;;;;;;9.10;4.50;;;17.40;99.90;;;;;;5065457;28;20984;-95
2022/05/20 14:35:52;;;;;;;6.27;4.53;;;17.20;99.90;;;;;;5067990;28;20222;-94
2022/05/20 14:38:26;;;;;;;7.70;4.93;;;17.00;99.90;;;;;;5060765;28;21306;-94
2022/05/20 14:41:01;;;;;;;7.37;3.80;;;16.90;99.90;;;;;;5063374;28;20219;-94
2022/05/20 14:43:45;;;;;;;5.93;4.07;;;17.00;99.90;;;;;;5082436;28;20173;-96
2022/05/20 14:47:13;;;;;;;8.43;4.67;;;17.20;99.90;;;;;;5082558;28;20259;-94
2022/05/20 14:48:57;;;;;;;4.73;3.90;;;17.40;99.90;;;;;;5080356;28;20224;-96
2022/05/20 14:51:28;;;;;;;7.40;4.83;;;17.20;99.90;;;;;;5062502;28;20232;-95
2022/05/20 14:54:04;;;;;;;6.20;4.03;;;16.80;99.90;;;;;;5060611;28;20213;-93
2022/05/20 14:56:43;;;;;;;6.00;4.00;;;16.70;99.90;;;;;;5060747;28;20231;-94
2022/05/20 14:59:11;;;;;;;5.87;4.20;;;16.60;99.90;;;;;;5070812;28;20233;-93
2022/05/20 15:01:39;;;;;;;5.87;3.53;;;16.60;99.90;;;;;;5063872;28;20227;-95
2022/05/20 15:04:06;;;;;;;6.40;3.60;;;16.50;99.90;;;;;;5079668;28;20193;-94
2022/05/20 15:06:36;;;;;;;5.40;3.23;;;16.40;99.90;;;;;;5043559;28;20220;-93
2022/05/20 15:09:03;;;;;;;7.00;3.40;;;16.00;99.90;;;;;;5078898;28;20244;-94
2022/05/20 15:11:34;;;;;;;4.73;2.90;;;15.90;99.90;;;;;;5058054;28;20229;-94
2022/05/20 15:14:01;;;;;;;3.13;2.83;;;15.70;99.90;;;;;;5073806;28;20209;-94
2022/05/20 15:16:27;;;;;;;2.80;2.10;;;15.60;99.90;;;;;;5049134;28;21036;-95
2022/05/20 15:18:53;;;;;;;3.83;2.87;;;15.40;99.90;;;;;;5051341;28;20440;-93
2022/05/20 15:21:34;;;;;;;2.33;1.73;;;15.20;99.90;;;;;;5063642;28;20224;-92
2022/05/20 15:24:10;;;;;;;4.23;2.30;;;15.10;99.90;;;;;;5060817;28;20220;-93
2022/05/20 15:26:39;;;;;;;8.83;3.80;;;15.30;99.90;;;;;;5077513;28;20243;-91
2022/05/20 15:29:07;;;;;;;5.57;2.97;;;15.30;99.90;;;;;;5058349;28;20223;-92
2022/05/20 15:37:15;;;;;;;4.57;2.83;;;15.20;99.90;;;;;;5077205;28;20978;-92
2022/05/20 15:39:51;;;;;;;4.60;2.60;;;15.10;99.90;;;;;;5060410;28;20371;-91
2022/05/20 15:42:19;;;;;;;3.53;3.23;;;15.20;99.90;;;;;;5077893;28;20219;-87
2022/05/20 15:44:45;;;;;;;8.03;3.33;;;15.10;99.90;;;;;;5076228;28;20222;-92
2022/05/20 15:47:12;;;;;;;3.70;2.80;;;15.10;99.90;;;;;;5042394;28;20692;-91
2022/05/20 15:49:38;;;;;;;5.77;3.20;;;14.90;99.90;;;;;;5060110;28;20225;-91
2022/05/20 15:52:07;;;;;;;3.60;2.93;;;14.70;99.90;;;;;;5044711;28;20184;-91
2022/05/20 15:54:34;;;;;;;3.60;2.67;;;14.70;99.90;;;;;;5059069;28;20987;-90
2022/05/20 15:57:00;;;;;;;8.00;3.40;;;14.60;99.90;;;;;;5076976;28;20213;-91
2022/05/20 15:59:33;;;;;;;7.90;4.20;;;14.50;99.90;;;;;;5071837;28;20302;-92
2022/05/20 16:01:59;;;;;;;7.07;3.63;;;14.40;99.90;;;;;;5060657;28;20244;-92
2022/05/20 16:04:26;;;;;;;7.93;3.80;;;14.20;99.90;;;;;;5047308;28;20256;-90
2022/05/20 16:06:51;;;;;;;5.67;3.93;;;14.20;99.90;;;;;;5048825;28;20180;-92
2022/05/20 16:09:19;;;;;;;5.03;3.57;;;14.00;99.90;;;;;;5057375;28;20209;-92